createdAt,value
2019-03-21T08:39:31.331Z,7.90
2019-03-21T08:42:35.515Z,7.60
2019-03-21T08:45:38.986Z,7.97
2019-03-21T08:48:42.431Z,7.53
2019-03-21T08:51:45.906Z,7.20
2019-03-21T08:54:49.384Z,8.17
2019-03-21T08:57:52.905Z,7.90
2019-03-21T09:00:56.438Z,7.10
2019-03-21T09:03:59.882Z,7.93
2019-03-21T09:07:03.350Z,7.63
2019-03-21T09:10:08.247Z,8.23
2019-03-21T09:13:11.773Z,7.67
2019-03-21T09:16:15.243Z,7.83
2019-03-21T09:19:18.684Z,8.07
2019-03-21T09:22:22.151Z,7.80
2019-03-21T09:25:25.591Z,7.67
2019-03-21T09:28:29.063Z,7.37
2019-03-21T09:31:32.507Z,6.93
2019-03-21T09:34:35.982Z,6.10
2019-03-21T09:37:39.423Z,5.80
2019-03-21T09:40:42.898Z,5.07
2019-03-21T09:43:46.338Z,5.83
2019-03-21T09:46:51.062Z,5.60
2019-03-21T09:49:54.802Z,6.17
2019-03-21T09:52:58.346Z,5.83
2019-03-21T09:56:01.788Z,6.70
2019-03-21T09:59:05.262Z,6.70
2019-03-21T10:02:08.722Z,5.87
2019-03-21T10:05:12.161Z,5.93
2019-03-21T10:08:15.625Z,5.50
2019-03-21T10:11:19.074Z,5.80
2019-03-21T10:14:22.542Z,5.80
2019-03-21T10:17:25.978Z,5.63
2019-03-21T10:20:29.433Z,5.60
2019-03-21T10:23:32.878Z,5.87
2019-03-21T10:26:36.347Z,5.27
2019-03-21T10:29:39.818Z,6.27
2019-03-21T10:32:43.252Z,6.70
2019-03-21T10:35:46.714Z,5.60
2019-03-21T10:38:50.154Z,5.30
2019-03-21T10:41:53.627Z,6.10
2019-03-21T10:44:57.083Z,5.17
2019-03-21T10:48:00.527Z,6.10
2019-03-21T10:51:03.987Z,6.43
2019-03-21T10:54:11.915Z,6.50
2019-03-21T10:57:15.384Z,6.70
2019-03-21T11:00:18.822Z,6.37
2019-03-21T11:03:22.292Z,7.53
2019-03-21T11:06:25.762Z,7.20
2019-03-21T11:09:29.974Z,7.70
2019-03-21T11:12:33.429Z,7.90
2019-03-21T11:15:36.913Z,7.43
2019-03-21T11:18:40.349Z,9.57
2019-03-21T11:21:43.826Z,8.67
2019-03-21T11:24:47.271Z,8.70
2019-03-21T11:27:50.730Z,7.73
2019-03-21T11:30:54.184Z,8.53
2019-03-21T11:33:57.649Z,7.50
2019-03-21T11:37:01.093Z,7.73
2019-03-21T11:40:05.135Z,7.00
2019-03-21T11:43:09.577Z,8.23
2019-03-21T11:46:13.042Z,7.63
2019-03-21T11:49:16.555Z,7.43
2019-03-21T11:52:20.086Z,8.77
2019-03-21T11:55:23.879Z,8.17
2019-03-21T11:58:27.335Z,8.23
2019-03-21T12:01:30.830Z,8.30
2019-03-21T12:04:34.261Z,7.63
2019-03-21T12:07:37.742Z,7.60
2019-03-21T12:10:41.186Z,7.87
2019-03-21T12:13:44.657Z,8.70
2019-03-21T12:16:48.116Z,9.30
2019-03-21T12:19:51.587Z,8.30
2019-03-21T12:22:55.031Z,8.50
2019-03-21T12:25:58.502Z,7.33
2019-03-21T12:29:01.945Z,7.77
2019-03-21T12:32:05.420Z,8.17
2019-03-21T12:35:09.128Z,7.60
2019-03-21T12:38:12.598Z,5.87
2019-03-21T12:41:16.050Z,6.83
2019-03-21T12:44:19.545Z,5.83
2019-03-21T12:47:31.107Z,7.40
2019-03-21T12:50:28.188Z,6.47
2019-03-21T12:53:31.622Z,6.30
2019-03-21T12:56:35.098Z,6.00
2019-03-21T12:59:38.534Z,6.13
2019-03-21T13:02:43.201Z,6.40
2019-03-21T13:05:46.830Z,5.77
2019-03-21T13:08:50.302Z,5.40
2019-03-21T13:11:53.746Z,5.23
2019-03-21T13:14:57.209Z,5.40
2019-03-21T13:18:00.883Z,5.57
2019-03-21T13:21:04.787Z,6.00
2019-03-21T13:24:08.282Z,5.13
2019-03-21T13:27:11.750Z,4.70
2019-03-21T13:30:15.446Z,4.83
2019-03-21T13:33:18.911Z,4.20
2019-03-21T13:36:22.385Z,4.90
2019-03-21T13:39:25.843Z,5.43
2019-03-21T13:42:29.590Z,4.83
2019-03-21T13:45:33.101Z,4.77
2019-03-21T13:48:36.573Z,4.93
2019-03-21T13:51:40.008Z,4.53
2019-03-21T13:54:44.405Z,5.27
2019-03-21T13:57:47.849Z,4.90
2019-03-21T14:00:51.330Z,4.40
2019-03-21T14:03:54.762Z,5.00
2019-03-21T14:06:58.315Z,4.60
2019-03-21T14:10:01.745Z,4.63
2019-03-21T14:13:05.215Z,4.70
2019-03-21T14:16:08.654Z,4.53
2019-03-21T14:19:12.114Z,5.17
2019-03-21T14:22:15.562Z,4.50
2019-03-21T14:25:19.219Z,5.10
2019-03-21T14:28:22.662Z,6.40
2019-03-21T14:31:26.133Z,5.43
2019-03-21T14:34:29.586Z,5.57
2019-03-21T14:37:33.121Z,5.17
2019-03-21T14:40:36.569Z,5.47
2019-03-21T14:43:40.034Z,5.80
2019-03-21T14:46:43.482Z,5.73
2019-03-21T14:49:46.951Z,5.60
2019-03-21T14:52:50.394Z,5.40
2019-03-21T14:55:53.857Z,5.63
2019-03-21T14:58:57.338Z,6.10
2019-03-21T15:02:00.778Z,5.80
2019-03-21T15:05:06.490Z,6.10
2019-03-21T15:08:09.921Z,5.80
2019-03-21T15:11:17.271Z,5.17
2019-03-21T15:14:18.593Z,5.93
2019-03-21T15:17:22.061Z,5.30
2019-03-21T15:20:25.495Z,5.40
2019-03-21T15:23:39.855Z,5.80
2019-03-21T15:26:34.130Z,5.37
2019-03-21T15:29:37.599Z,5.57
2019-03-21T15:32:41.933Z,5.27
2019-03-21T15:35:45.485Z,5.50
2019-03-21T15:38:48.935Z,5.70
2019-03-21T15:41:52.409Z,5.43
2019-03-21T15:45:10.156Z,6.23
2019-03-21T15:48:01.040Z,6.13
2019-03-21T15:51:05.160Z,5.90
2019-03-21T15:54:08.815Z,5.27
2019-03-21T15:57:12.261Z,5.87
2019-03-21T16:00:18.815Z,5.30
2019-03-21T16:03:22.251Z,4.57
2019-03-21T16:06:25.818Z,5.00
2019-03-21T16:09:29.268Z,5.80
2019-03-21T16:12:32.725Z,5.27
2019-03-21T16:15:36.191Z,4.73
2019-03-21T16:18:39.665Z,5.20
2019-03-21T16:21:43.110Z,4.70
2019-03-21T16:24:46.569Z,5.57
2019-03-21T16:27:50.052Z,5.23
2019-03-21T16:30:53.515Z,4.70
2019-03-21T16:33:56.968Z,4.27
2019-03-21T16:37:00.429Z,3.80
2019-03-21T16:40:07.076Z,3.60
2019-03-21T16:43:10.551Z,4.00
2019-03-21T16:46:13.997Z,4.07
2019-03-21T16:49:17.461Z,3.80
2019-03-21T16:52:20.899Z,2.93
2019-03-21T16:55:24.361Z,2.90
2019-03-21T16:58:27.882Z,3.43
2019-03-21T17:01:31.338Z,3.03
2019-03-21T17:04:34.779Z,3.60
2019-03-21T17:07:38.247Z,3.90
2019-03-21T17:10:41.700Z,3.83
2019-03-21T17:13:45.167Z,3.80
2019-03-21T17:16:48.615Z,3.43
2019-03-21T17:19:52.069Z,2.73
2019-03-21T17:22:55.510Z,3.30
2019-03-21T17:25:58.982Z,6.27
2019-03-21T17:29:02.417Z,6.73
2019-03-21T17:32:05.883Z,6.23
2019-03-21T17:35:09.596Z,6.30
2019-03-21T17:38:13.054Z,6.63
2019-03-21T17:41:16.495Z,5.33
2019-03-21T17:44:19.957Z,5.00
2019-03-21T17:47:23.479Z,4.60
2019-03-21T17:50:26.962Z,5.00
2019-03-21T17:53:30.397Z,5.97
2019-03-21T17:56:33.858Z,5.67
2019-03-21T17:59:37.330Z,4.97
2019-03-21T18:02:41.497Z,4.40
2019-03-21T18:05:45.055Z,3.83
2019-03-21T18:08:48.520Z,3.50
2019-03-21T18:11:51.966Z,4.07
2019-03-21T18:14:55.428Z,3.77
2019-03-21T18:17:58.874Z,4.00
2019-03-21T18:21:02.531Z,4.30
2019-03-21T18:24:05.978Z,4.10
2019-03-21T18:27:09.444Z,4.47
2019-03-21T18:30:13.326Z,5.97
2019-03-21T18:33:19.157Z,6.53
2019-03-21T18:36:21.967Z,6.17
2019-03-21T18:39:25.439Z,6.67
2019-03-21T18:42:28.962Z,6.80
2019-03-21T18:45:32.440Z,5.57
2019-03-21T18:48:35.870Z,4.97
2019-03-21T18:51:39.343Z,5.77
2019-03-21T18:54:42.782Z,5.63
2019-03-21T18:57:46.246Z,9.73
2019-03-21T19:00:49.720Z,15.57
2019-03-21T19:03:53.161Z,9.70
2019-03-21T19:06:56.671Z,6.70
2019-03-21T19:10:00.162Z,6.80
2019-03-21T19:13:03.804Z,6.70
2019-03-21T19:16:07.244Z,5.90
2019-03-21T19:19:10.721Z,6.83
2019-03-21T19:22:14.161Z,6.27
2019-03-21T19:25:19.442Z,6.70
2019-03-21T19:28:23.296Z,6.43
2019-03-21T19:31:26.766Z,5.80
2019-03-21T19:34:30.210Z,6.00
2019-03-21T19:37:33.941Z,5.67
2019-03-21T19:40:37.386Z,5.17
2019-03-21T19:43:40.858Z,5.90
2019-03-21T19:46:44.298Z,5.93
2019-03-21T19:49:47.770Z,5.30
2019-03-21T19:52:51.233Z,6.20
2019-03-21T19:55:54.703Z,6.87
2019-03-21T19:58:58.149Z,5.60
2019-03-21T20:02:01.614Z,6.17
2019-03-21T20:05:08.018Z,7.63
2019-03-21T20:08:11.536Z,8.10
2019-03-21T20:11:15.015Z,9.23
2019-03-21T20:14:18.466Z,16.47
2019-03-21T20:17:21.942Z,11.80
2019-03-21T20:20:25.395Z,10.47
2019-03-21T20:23:28.873Z,11.63
2019-03-21T20:26:32.323Z,12.13
2019-03-21T20:29:35.830Z,13.27
2019-03-21T20:32:39.329Z,13.30
2019-03-21T20:35:42.802Z,13.90
2019-03-21T20:38:46.289Z,12.87
2019-03-21T20:41:49.735Z,15.67
2019-03-21T20:44:53.201Z,16.07
2019-03-21T20:47:56.679Z,14.90
2019-03-21T20:51:00.125Z,16.43
2019-03-21T20:54:03.590Z,22.17
2019-03-21T20:57:07.081Z,18.27
2019-03-21T21:00:16.370Z,17.90
2019-03-21T21:03:19.850Z,20.93
2019-03-21T21:06:26.369Z,16.93
2019-03-21T21:09:29.834Z,15.63
2019-03-21T21:12:33.328Z,16.13
2019-03-21T21:15:36.771Z,15.33
2019-03-21T21:18:40.242Z,16.57
2019-03-21T21:21:43.693Z,16.70
2019-03-21T21:24:47.154Z,17.07
2019-03-21T21:27:50.676Z,15.93
2019-03-21T21:30:54.136Z,16.67
2019-03-21T21:33:57.577Z,16.43
2019-03-21T21:37:01.050Z,16.47
2019-03-21T21:40:06.499Z,16.73
2019-03-21T21:43:10.197Z,17.23
2019-03-21T21:46:13.638Z,16.07
2019-03-21T21:49:17.114Z,14.33
2019-03-21T21:52:20.577Z,14.83
2019-03-21T21:55:24.116Z,14.57
2019-03-21T21:58:27.565Z,14.23
2019-03-21T22:01:31.050Z,14.50
2019-03-21T22:04:34.500Z,13.00
2019-03-21T22:07:37.969Z,11.87
2019-03-21T22:10:41.414Z,11.83
2019-03-21T22:13:44.889Z,12.30
2019-03-21T22:16:48.370Z,10.87
2019-03-21T22:19:51.809Z,11.13
2019-03-21T22:22:55.278Z,11.60
2019-03-21T22:25:58.758Z,11.97
2019-03-21T22:29:02.214Z,11.80
2019-03-21T22:32:05.690Z,11.30
2019-03-21T22:35:09.774Z,11.00
2019-03-21T22:38:13.241Z,11.67
2019-03-21T22:41:18.924Z,12.83
2019-03-21T22:44:21.894Z,11.63
2019-03-21T22:47:25.350Z,12.27
2019-03-21T22:50:28.824Z,11.30
2019-03-21T22:53:32.270Z,10.80
2019-03-21T22:56:41.129Z,10.97
2019-03-21T22:59:40.925Z,11.80
2019-03-21T23:02:44.678Z,12.07
2019-03-21T23:05:48.129Z,11.63
2019-03-21T23:08:51.612Z,10.40
2019-03-21T23:11:55.054Z,10.63
2019-03-21T23:14:58.611Z,10.60
2019-03-21T23:18:02.054Z,11.00
2019-03-21T23:21:05.530Z,11.67
2019-03-21T23:24:08.983Z,12.23
2019-03-21T23:27:12.441Z,12.37
2019-03-21T23:30:18.496Z,13.63
2019-03-21T23:33:21.973Z,13.20
2019-03-21T23:36:25.417Z,13.77
2019-03-21T23:39:28.915Z,13.80
2019-03-21T23:42:32.350Z,13.73
2019-03-21T23:45:35.816Z,15.90
2019-03-21T23:48:39.283Z,16.53
2019-03-21T23:51:42.730Z,16.77
2019-03-21T23:54:46.194Z,16.57
2019-03-21T23:57:49.629Z,16.83
